Kitwanga, Canada
Current Conditions -  °F | °C
As of 9:43 PM on Monday 26 Jan 2015 (Local Time) from CYYD Reporting Station
Light Rain Light Rain  
Wind Chill: 32°   Ceiling: 1800
Heat Index: 32°   Visibility: 5mi
Dew Point: 32°   Wind: 0mph
Humidity: 100%   Direction: NA
Pressure: 29.66"   Gusts: NA
Location:  55.1°N, 128.07°W
Report Text: CYYD 270543Z AUTO 00000KT 5SM -RA BR OVC018 00/00 A2966 RMK SLP061
Loading
Personal Weather Stations






























Interactive Weather Map New forecast layout! Learn more

10-Day Weather Forecast

Advertisements
Track Severe Weather on mobile